Time;durP1;ratioP1;P1;durP2;ratioP2;P2;SDS_P1;SDS_P2;PMS_P1;PMS_P2;Temp;Humidity;BMP_temperature;BMP_pressure;BME280_temperature;BME280_humidity;BME280_pressure;Samples;Min_cycle;Max_cycle;Signal;HPM_P1;HPM_P2
2022/12/04 00:00:34;;;;;;;23.70;14.57;;;;;;;2.56;74.54;96314.50;5094028;28;20472;-78
2022/12/04 00:03:01;;;;;;;25.08;15.05;;;;;;;2.59;73.75;96313.41;5094178;28;20527;-78
2022/12/04 00:05:29;;;;;;;24.98;14.25;;;;;;;2.59;73.71;96313.41;5094135;28;20534;-78
2022/12/04 00:07:58;;;;;;;22.88;13.68;;;;;;;2.58;73.99;96311.75;5093860;28;20048;-78
2022/12/04 00:10:26;;;;;;;24.73;14.38;;;;;;;2.59;73.56;96305.69;5093882;28;20047;-78
2022/12/04 00:12:53;;;;;;;27.02;14.90;;;;;;;2.60;73.45;96304.72;5093729;28;20048;-78
2022/12/04 00:15:21;;;;;;;27.88;16.83;;;;;;;2.56;73.50;96296.47;5093802;28;20052;-78
2022/12/04 00:17:52;;;;;;;26.90;16.33;;;;;;;2.55;73.62;96304.31;5114694;22;20457;-78
2022/12/04 00:20:20;;;;;;;27.88;15.73;;;;;;;2.53;73.91;96306.22;5093823;28;20509;-76
2022/12/04 00:22:49;;;;;;;24.90;14.75;;;;;;;2.53;73.73;96306.22;5093815;28;20082;-77
2022/12/04 00:25:18;;;;;;;25.45;15.18;;;;;;;2.54;73.91;96293.22;5093600;28;20425;-77
2022/12/04 00:27:45;;;;;;;30.17;16.92;;;;;;;2.55;74.36;96304.31;5093107;28;20101;-77
2022/12/04 00:30:13;;;;;;;26.35;15.73;;;;;;;2.57;73.77;96302.44;5093392;28;20044;-77
2022/12/04 00:32:41;;;;;;;28.63;16.23;;;;;;;2.60;74.18;96318.44;5093397;28;20417;-77
2022/12/04 00:35:09;;;;;;;28.95;16.73;;;;;;;2.63;73.80;96323.28;5093546;28;20047;-78
2022/12/04 00:37:37;;;;;;;29.08;16.35;;;;;;;2.67;74.02;96323.84;5093247;28;20044;-77
2022/12/04 00:40:06;;;;;;;31.73;17.58;;;;;;;2.68;73.83;96318.50;5092790;28;20048;-78
2022/12/04 00:42:35;;;;;;;26.40;16.10;;;;;;;2.71;73.61;96312.28;5093098;28;20054;-78
2022/12/04 00:45:03;;;;;;;24.83;15.13;;;;;;;2.73;73.93;96318.09;5093163;28;20048;-77
2022/12/04 00:47:30;;;;;;;30.38;17.95;;;;;;;2.75;74.06;96310.25;5092819;28;20066;-78
2022/12/04 00:49:58;;;;;;;27.13;15.55;;;;;;;2.77;73.85;96313.50;5092667;28;20426;-78
2022/12/04 00:52:27;;;;;;;32.53;18.05;;;;;;;2.79;73.64;96314.16;5093075;28;20048;-78
2022/12/04 00:54:54;;;;;;;26.92;15.50;;;;;;;2.78;73.25;96325.44;5092997;28;20052;-77
2022/12/04 00:57:22;;;;;;;31.42;17.35;;;;;;;2.75;73.73;96320.53;5092800;28;20051;-77
2022/12/04 00:59:51;;;;;;;25.05;15.27;;;;;;;2.71;73.87;96314.84;5092931;28;20071;-78
2022/12/04 01:02:19;;;;;;;28.83;16.33;;;;;;;2.71;73.96;96320.00;5092714;28;20048;-78
2022/12/04 01:04:47;;;;;;;29.20;17.45;;;;;;;2.73;73.93;96323.25;5093894;28;20406;-78
2022/12/04 01:07:14;;;;;;;30.00;16.30;;;;;;;2.75;73.52;96310.25;5095434;28;20063;-78
2022/12/04 01:09:42;;;;;;;26.55;15.80;;;;;;;2.77;73.70;96321.22;5092287;28;20044;-78
2022/12/04 01:12:09;;;;;;;28.30;16.38;;;;;;;2.75;73.61;96318.78;5092791;28;20055;-78
2022/12/04 01:14:42;;;;;;;26.35;15.45;;;;;;;2.74;73.43;96314.59;5093193;28;20105;-78
2022/12/04 01:17:11;;;;;;;25.35;14.55;;;;;;;2.70;73.23;96323.53;5103109;28;20051;-77
2022/12/04 01:19:39;;;;;;;26.33;14.88;;;;;;;2.64;73.59;96326.66;5116713;28;20075;-78
2022/12/04 01:22:06;;;;;;;26.58;14.90;;;;;;;2.60;73.67;96323.56;5100208;28;20051;-79
2022/12/04 01:24:34;;;;;;;27.23;14.63;;;;;;;2.57;73.55;96325.59;5092599;28;20044;-78
2022/12/04 01:27:01;;;;;;;26.48;14.88;;;;;;;2.52;73.94;96318.28;5092165;28;20056;-79
2022/12/04 01:29:29;;;;;;;27.73;15.18;;;;;;;2.51;74.09;96318.44;5092455;28;20051;-78
2022/12/04 01:31:56;;;;;;;25.42;15.65;;;;;;;2.50;73.78;96314.25;5092486;28;20413;-77
2022/12/04 01:34:26;;;;;;;23.95;14.73;;;;;;;2.47;74.08;96313.56;5092449;28;20044;-78
2022/12/04 01:36:53;;;;;;;26.65;15.32;;;;;;;2.45;74.18;96314.66;5092625;28;20048;-78
2022/12/04 01:39:21;;;;;;;25.80;15.68;;;;;;;2.40;74.04;96312.47;5092302;28;20048;-77
2022/12/04 01:41:48;;;;;;;27.58;15.90;;;;;;;2.42;74.19;96310.56;5092189;28;20059;-78
2022/12/04 01:44:19;;;;;;;28.48;16.23;;;;;;;2.44;74.42;96313.81;5092471;28;20048;-77
2022/12/04 01:46:51;;;;;;;26.38;15.30;;;;;;;2.47;74.50;96318.72;5092940;28;20044;-79
2022/12/04 01:49:23;;;;;;;24.93;14.33;;;;;;;2.50;73.99;96317.63;5092641;28;20048;-78
2022/12/04 01:51:58;;;;;;;26.20;14.40;;;;;;;2.51;74.37;96318.44;5092245;28;20272;-78
2022/12/04 01:54:29;;;;;;;22.08;13.65;;;;;;;2.52;74.40;96312.34;5092332;28;20048;-78
2022/12/04 01:57:00;;;;;;;27.38;14.25;;;;;;;2.52;74.08;96302.84;5092782;28;20044;-78
2022/12/04 01:59:33;;;;;;;23.90;13.75;;;;;;;2.55;73.87;96314.63;5091862;28;20058;-78
2022/12/04 02:02:05;;;;;;;22.70;13.85;;;;;;;2.54;74.15;96302.72;5092114;28;20048;-78
2022/12/04 02:04:34;;;;;;;25.90;14.82;;;;;;;2.50;73.87;96301.38;5092666;28;20040;-78
2022/12/04 02:07:03;;;;;;;26.48;13.75;;;;;;;2.47;74.54;96305.84;5092021;28;20494;-78
2022/12/04 02:09:32;;;;;;;24.38;14.32;;;;;;;2.46;74.12;96306.78;5091718;28;20044;-78
2022/12/04 02:12:08;;;;;;;22.13;13.15;;;;;;;2.48;74.47;96307.44;5092630;28;20109;-78
2022/12/04 02:14:44;;;;;;;23.52;13.38;;;;;;;2.47;74.42;96305.00;5096370;28;20056;-78
2022/12/04 02:17:21;;;;;;;23.17;13.82;;;;;;;2.45;74.53;96309.50;5096154;28;20048;-78
2022/12/04 02:20:00;;;;;;;24.17;13.75;;;;;;;2.42;74.64;96310.56;5095464;28;20055;-78
2022/12/04 02:22:50;;;;;;;25.95;13.80;;;;;;;2.40;74.71;96302.16;5095760;28;20098;-77
2022/12/04 02:25:29;;;;;;;23.75;14.05;;;;;;;2.41;75.02;96297.88;5095956;28;20048;-78
2022/12/04 02:28:07;;;;;;;21.52;13.07;;;;;;;2.40;74.62;96299.59;5095678;28;20067;-78
2022/12/04 02:30:40;;;;;;;22.42;13.00;;;;;;;2.38;74.86;96298.13;5095911;28;20055;-78
2022/12/04 02:33:17;;;;;;;24.75;13.38;;;;;;;2.41;74.81;96298.66;5095573;28;20490;-77
2022/12/04 02:35:48;;;;;;;23.48;13.40;;;;;;;2.43;74.62;96291.63;5095603;28;20494;-78
2022/12/04 02:38:22;;;;;;;18.65;11.88;;;;;;;2.45;74.92;96299.22;5095129;28;20402;-78
2022/12/04 02:40:54;;;;;;;26.17;13.68;;;;;;;2.44;74.81;96287.28;5095578;28;20048;-78
2022/12/04 02:43:27;;;;;;;22.95;12.93;;;;;;;2.47;75.19;96287.81;5095042;28;20059;-77
2022/12/04 02:45:59;;;;;;;20.17;11.95;;;;;;;2.51;74.91;96287.53;5095539;28;20051;-78
2022/12/04 02:48:31;;;;;;;23.10;14.05;;;;;;;2.54;75.06;96290.66;5095210;28;20060;-77
2022/12/04 02:51:01;;;;;;;21.42;12.65;;;;;;;2.56;74.44;96281.03;5095568;28;20040;-77
2022/12/04 02:53:34;;;;;;;19.58;11.38;;;;;;;2.57;74.29;96274.09;5095425;28;20052;-78
2022/12/04 02:56:06;;;;;;;20.20;11.35;;;;;;;2.58;74.57;96280.88;5095295;28;20055;-78
2022/12/04 02:58:40;;;;;;;20.92;12.20;;;;;;;2.53;74.44;96277.91;5096635;28;20517;-78
2022/12/04 03:01:22;;;;;;;22.77;13.48;;;;;;;2.48;74.02;96261.09;5096420;28;20044;-79
2022/12/04 03:03:55;;;;;;;20.00;12.53;;;;;;;2.46;74.53;96257.06;5096743;28;20075;-78
2022/12/04 03:06:25;;;;;;;19.52;11.65;;;;;;;2.46;74.59;96260.44;5095691;28;20052;-78
2022/12/04 03:08:58;;;;;;;21.05;12.77;;;;;;;2.47;74.38;96253.50;5095530;28;20051;-78
2022/12/04 03:11:30;;;;;;;19.20;12.02;;;;;;;2.48;74.64;96253.38;5095162;28;20074;-78
2022/12/04 03:14:05;;;;;;;18.48;11.73;;;;;;;2.51;74.47;96252.28;5094810;28;20145;-79
2022/12/04 03:16:39;;;;;;;20.30;12.75;;;;;;;2.52;74.38;96243.63;5095419;28;20063;-77
2022/12/04 03:19:12;;;;;;;20.73;12.32;;;;;;;2.50;74.00;96239.56;5094488;28;20083;-78
2022/12/04 03:21:47;;;;;;;18.77;11.55;;;;;;;2.51;74.29;96247.13;5094869;28;20047;-77
2022/12/04 03:24:19;;;;;;;17.83;11.10;;;;;;;2.53;74.42;96228.97;5093968;28;20040;-78
2022/12/04 03:26:49;;;;;;;20.52;11.85;;;;;;;2.53;74.59;96229.78;5094608;28;20056;-78
2022/12/04 03:29:22;;;;;;;20.63;13.07;;;;;;;2.56;74.45;96223.53;5094252;28;20063;-78
2022/12/04 03:31:51;;;;;;;;;;;;;;;2.61;74.78;96223.94;5095039;28;20051;-79
2022/12/04 03:34:27;;;;;;;18.83;11.98;;;;;;;2.58;73.86;96221.63;5094565;28;19920;-78
2022/12/04 03:36:58;;;;;;;21.38;11.85;;;;;;;2.56;74.30;96220.97;5094420;28;20056;-78
2022/12/04 03:39:31;;;;;;;17.80;11.60;;;;;;;2.54;74.38;96226.28;5093856;28;20106;-78
2022/12/04 03:42:02;;;;;;;21.42;11.77;;;;;;;2.54;74.68;96235.78;5094525;28;20048;-77
2022/12/04 03:44:37;;;;;;;20.35;12.32;;;;;;;2.55;74.34;96232.22;5094522;28;20048;-78
2022/12/04 03:47:10;;;;;;;22.50;12.48;;;;;;;2.56;74.16;96229.53;5094265;28;20066;-78
2022/12/04 03:49:42;;;;;;;;;;;;;;;2.63;75.06;96234.94;5094193;28;20051;-78
2022/12/04 03:52:16;;;;;;;18.40;11.90;;;;;;;2.62;74.24;96228.13;5094104;28;19926;-78
2022/12/04 03:54:49;;;;;;;18.80;11.43;;;;;;;2.61;74.21;96231.69;5094284;28;20052;-78
2022/12/04 03:57:20;;;;;;;17.17;11.15;;;;;;;2.65;74.65;96230.44;5094377;28;20052;-78
2022/12/04 03:59:56;;;;;;;20.92;12.68;;;;;;;2.67;74.03;96246.56;5093641;28;20097;-78
2022/12/04 04:02:32;;;;;;;17.83;11.55;;;;;;;2.70;73.83;96243.69;5094137;28;20082;-78
2022/12/04 04:05:02;;;;;;;20.10;11.82;;;;;;;2.70;73.94;96237.75;5094999;28;20060;-78
2022/12/04 04:07:37;;;;;;;19.45;11.65;;;;;;;2.71;74.15;96247.88;5095327;28;20060;-79
2022/12/04 04:10:11;;;;;;;19.20;12.60;;;;;;;2.71;73.99;96249.66;5095102;28;20130;-79
2022/12/04 04:12:43;;;;;;;26.40;14.45;;;;;;;2.72;73.87;96246.16;5094070;28;20402;-79
2022/12/04 04:26:41;;;;;;;18.02;11.88;;;;;;;2.74;74.03;96268.22;5087126;28;20055;-79
2022/12/04 04:29:09;;;;;;;17.05;10.63;;;;;;;2.73;73.68;96261.44;5093101;28;20052;-78
2022/12/04 04:31:43;;;;;;;16.88;11.15;;;;;;;2.72;73.99;96275.28;5093422;28;20126;-78
2022/12/04 04:34:19;;;;;;;20.40;11.43;;;;;;;2.71;74.09;96265.09;5093603;28;20059;-78
2022/12/04 04:36:55;;;;;;;20.85;11.80;;;;;;;2.70;74.14;96276.38;5092532;28;20051;-78
2022/12/04 04:39:30;;;;;;;16.95;10.85;;;;;;;2.70;74.28;96272.03;5093379;28;20051;-78
2022/12/04 04:42:04;;;;;;;18.35;11.80;;;;;;;2.69;74.33;96275.56;5093331;28;20425;-78
2022/12/04 04:44:40;;;;;;;21.10;12.20;;;;;;;2.68;74.51;96279.88;5093789;28;20056;-79
2022/12/04 04:47:16;;;;;;;21.05;12.68;;;;;;;2.71;74.84;96280.56;5093800;28;20540;-77
2022/12/04 04:49:46;;;;;;;22.85;12.38;;;;;;;2.71;74.17;96277.97;5093273;28;20052;-78
2022/12/04 04:52:14;;;;;;;20.85;12.73;;;;;;;2.72;74.46;96275.28;5093472;28;20070;-79
2022/12/04 04:54:43;;;;;;;19.50;12.80;;;;;;;2.72;74.41;96277.84;5093268;28;20043;-78
2022/12/04 04:57:10;;;;;;;22.17;13.65;;;;;;;2.74;74.50;96275.16;5095192;28;20044;-78
2022/12/04 04:59:38;;;;;;;21.30;13.20;;;;;;;2.74;74.30;96277.72;5112817;28;20052;-79
2022/12/04 05:02:05;;;;;;;20.40;13.10;;;;;;;2.76;74.58;96271.47;5114317;28;20028;-77
2022/12/04 05:04:34;;;;;;;21.80;12.30;;;;;;;2.80;74.99;96274.56;5104562;28;20055;-79
2022/12/04 05:07:02;;;;;;;21.02;12.75;;;;;;;2.83;74.50;96269.94;5099856;28;20063;-77
2022/12/04 05:09:29;;;;;;;20.33;13.10;;;;;;;2.88;74.27;96275.47;5092938;28;20222;-79
2022/12/04 05:11:57;;;;;;;20.70;12.23;;;;;;;2.91;74.58;96268.41;5093242;28;20056;-78
2022/12/04 05:14:25;;;;;;;19.58;12.18;;;;;;;2.93;74.84;96266.50;5092997;28;20512;-78
2022/12/04 05:16:52;;;;;;;17.17;11.55;;;;;;;2.94;74.74;96274.09;5093089;28;20044;-77
2022/12/04 05:22:07;;;;;;;20.63;10.93;;;;;;;2.97;74.33;96273.00;5092814;28;20051;-79
2022/12/04 05:24:34;;;;;;;19.50;10.65;;;;;;;2.97;74.03;96278.97;5092961;28;20052;-79
2022/12/04 05:27:02;;;;;;;17.05;10.73;;;;;;;2.97;73.79;96273.00;5092818;28;20059;-78
2022/12/04 05:29:29;;;;;;;21.77;12.23;;;;;;;2.95;74.02;96270.59;5092362;28;20048;-78
2022/12/04 05:32:03;;;;;;;19.95;12.50;;;;;;;2.98;73.51;96279.81;5092734;28;20506;-78
2022/12/04 05:34:30;;;;;;;19.55;10.88;;;;;;;2.99;74.05;96277.06;5092586;28;20075;-78
2022/12/04 05:36:58;;;;;;;20.08;12.23;;;;;;;2.99;73.83;96276.25;5092918;28;20149;-79
2022/12/04 05:39:27;;;;;;;19.58;11.68;;;;;;;3.00;73.63;96272.75;5092287;28;20498;-78
2022/12/04 05:41:54;;;;;;;18.60;11.52;;;;;;;3.01;73.54;96264.03;5092567;28;20055;-78
2022/12/04 05:44:22;;;;;;;19.45;11.18;;;;;;;3.00;73.18;96270.16;5092420;28;20073;-78
2022/12/04 05:46:50;;;;;;;17.60;10.82;;;;;;;2.95;73.36;96268.03;5092508;28;20139;-77
2022/12/04 05:49:17;;;;;;;17.50;10.93;;;;;;;2.94;73.50;96261.22;5096411;28;20109;-78
2022/12/04 05:51:45;;;;;;;16.38;9.95;;;;;;;2.94;73.51;96276.69;5096502;28;20059;-78
2022/12/04 05:54:12;;;;;;;14.80;9.27;;;;;;;2.94;73.37;96273.31;5096536;28;20460;-78
2022/12/04 05:56:41;;;;;;;15.48;9.55;;;;;;;2.92;73.38;96273.44;5096371;28;20051;-78
2022/12/04 05:59:09;;;;;;;17.27;10.25;;;;;;;2.92;73.35;96270.06;5095962;28;20056;-79
2022/12/04 06:01:37;;;;;;;17.13;9.80;;;;;;;2.92;73.52;96275.22;5096132;28;20059;-79
2022/12/04 06:04:04;;;;;;;18.33;10.52;;;;;;;2.89;73.82;96271.97;5095995;28;20058;-78
2022/12/04 06:06:32;;;;;;;17.05;9.80;;;;;;;2.89;73.60;96261.66;5096298;28;20051;-78
2022/12/04 06:09:00;;;;;;;15.75;9.65;;;;;;;2.91;73.74;96269.25;5095641;28;20048;-79
2022/12/04 06:11:30;;;;;;;17.00;10.00;;;;;;;2.93;73.35;96269.09;5096051;28;20058;-78
2022/12/04 06:14:01;;;;;;;16.40;9.63;;;;;;;2.94;74.05;96263.81;5095967;28;20048;-77
2022/12/04 06:16:30;;;;;;;16.67;9.63;;;;;;;2.97;73.49;96271.22;5096135;28;20047;-78
2022/12/04 06:19:00;;;;;;;18.17;11.02;;;;;;;3.01;73.11;96269.19;5109979;22;20070;-79
2022/12/04 06:21:30;;;;;;;16.83;10.18;;;;;;;3.03;73.49;96264.72;5077188;28;20502;-80
2022/12/04 06:23:58;;;;;;;16.35;10.13;;;;;;;3.03;73.54;96262.13;5076433;28;20052;-80
2022/12/04 06:26:26;;;;;;;14.73;9.23;;;;;;;3.05;73.90;96262.81;5076559;28;20044;-79
2022/12/04 06:28:55;;;;;;;17.58;10.20;;;;;;;3.06;73.23;96259.25;5076112;28;20053;-79
2022/12/04 06:31:25;;;;;;;16.90;10.35;;;;;;;3.05;73.36;96260.22;5076145;28;20059;-79
2022/12/04 06:33:54;;;;;;;17.30;10.48;;;;;;;3.03;73.55;96251.81;5076453;28;20052;-79
2022/12/04 06:36:22;;;;;;;16.05;9.20;;;;;;;3.02;73.48;96258.75;5076242;28;20048;-79
2022/12/04 06:38:51;;;;;;;16.17;10.35;;;;;;;3.00;73.02;96244.41;5076072;28;20105;-80
2022/12/04 06:41:20;;;;;;;16.00;10.07;;;;;;;2.99;73.28;96240.19;5076162;28;20060;-80
2022/12/04 06:43:50;;;;;;;17.38;9.90;;;;;;;2.98;73.24;96241.97;5076305;28;20044;-79
2022/12/04 06:46:20;;;;;;;16.73;10.35;;;;;;;2.99;73.21;96237.59;5075864;28;20049;-79
2022/12/04 06:48:49;;;;;;;14.70;9.60;;;;;;;3.00;73.27;96236.66;5075145;28;20052;-79
2022/12/04 06:51:19;;;;;;;17.60;10.55;;;;;;;3.00;73.55;96236.66;5075996;28;20067;-80
2022/12/04 06:53:47;;;;;;;18.70;10.40;;;;;;;2.99;73.46;96240.19;5075836;28;20055;-80
2022/12/04 06:56:17;;;;;;;17.50;10.00;;;;;;;2.97;73.67;96247.25;5075707;28;20051;-79
2022/12/04 06:58:45;;;;;;;17.80;10.48;;;;;;;2.97;73.60;96248.03;5074394;28;20048;-79
2022/12/04 07:01:14;;;;;;;15.48;9.50;;;;;;;3.00;73.41;96259.84;5075700;28;20060;-79
2022/12/04 07:03:42;;;;;;;19.92;11.15;;;;;;;3.01;73.48;96259.69;5075525;28;20106;-80
2022/12/04 07:06:21;;;;;;;18.52;10.38;;;;;;;2.99;73.14;96259.03;5075217;28;20044;-79
2022/12/04 07:08:51;;;;;;;18.40;10.52;;;;;;;2.97;73.01;96247.25;5076079;28;20048;-80
2022/12/04 07:11:21;;;;;;;22.33;11.93;;;;;;;2.95;73.90;96251.72;5075304;28;20228;-78
2022/12/04 07:13:49;;;;;;;19.67;11.38;;;;;;;2.95;73.61;96259.44;5075205;28;20079;-78
2022/12/04 07:16:20;;;;;;;20.60;12.05;;;;;;;2.95;74.12;96264.59;5074875;28;20048;-76
2022/12/04 07:18:52;;;;;;;20.58;10.32;;;;;;;2.96;74.00;96259.31;5074099;28;20056;-76
2022/12/04 07:21:22;;;;;;;19.20;10.02;;;;;;;2.97;74.03;96260.13;5054876;28;20045;-76
2022/12/04 07:23:51;;;;;;;18.73;11.27;;;;;;;2.92;74.07;96257.97;5054726;28;20063;-77
2022/12/04 07:26:20;;;;;;;19.23;12.10;;;;;;;2.93;74.25;96262.19;5076914;28;20517;-78
2022/12/04 07:28:47;;;;;;;19.48;11.57;;;;;;;2.95;74.00;96262.03;5074410;28;20070;-76
2022/12/04 07:31:16;;;;;;;19.77;11.43;;;;;;;2.99;73.94;96263.38;5071627;28;20063;-76
2022/12/04 07:33:44;;;;;;;21.20;10.88;;;;;;;3.01;74.17;96271.78;5074909;28;20098;-78
2022/12/04 07:36:14;;;;;;;19.52;10.55;;;;;;;3.02;74.11;96270.84;5074427;28;20436;-78
2022/12/04 07:38:43;;;;;;;17.08;10.88;;;;;;;3.05;73.88;96286.00;5074123;28;20052;-77
2022/12/04 07:41:12;;;;;;;20.90;12.38;;;;;;;3.08;73.99;96301.16;5074371;28;20048;-77
2022/12/04 07:43:40;;;;;;;19.35;12.27;;;;;;;3.10;73.69;96291.53;5074368;28;20063;-77
2022/12/04 07:46:10;;;;;;;21.60;13.80;;;;;;;3.10;73.55;96283.78;5071508;28;20044;-78
2022/12/04 07:48:37;;;;;;;20.52;12.25;;;;;;;3.10;73.76;96278.63;5072248;28;20044;-77
2022/12/04 07:51:07;;;;;;;19.20;12.20;;;;;;;3.11;73.38;96279.47;5074533;28;20056;-77
2022/12/04 07:53:36;;;;;;;22.38;12.50;;;;;;;3.09;73.23;96277.03;5074126;28;20047;-76
2022/12/04 07:56:06;;;;;;;18.70;11.13;;;;;;;3.08;73.96;96278.81;5074083;28;20051;-77
2022/12/04 07:58:34;;;;;;;17.98;10.88;;;;;;;3.11;73.95;96282.84;5075955;28;20122;-77
2022/12/04 08:01:06;;;;;;;18.13;11.07;;;;;;;3.12;73.65;96283.66;5075929;28;20060;-76
2022/12/04 08:03:35;;;;;;;18.67;11.57;;;;;;;3.14;73.21;96285.13;5074416;28;20131;-77
2022/12/04 08:06:03;;;;;;;15.00;9.65;;;;;;;3.15;73.21;96281.63;5073562;28;20045;-77
2022/12/04 08:08:31;;;;;;;15.02;9.85;;;;;;;3.18;73.47;96270.22;5073454;28;20044;-77
2022/12/04 08:10:59;;;;;;;17.30;10.77;;;;;;;3.17;73.42;96269.41;5073734;28;20056;-77
2022/12/04 08:13:28;;;;;;;16.65;9.73;;;;;;;3.18;73.10;96265.84;5073733;28;20520;-78
2022/12/04 08:15:56;;;;;;;17.58;10.70;;;;;;;3.19;73.21;96270.06;5073828;28;20040;-77
2022/12/04 08:18:24;;;;;;;17.10;10.93;;;;;;;3.19;73.23;96270.06;5072748;28;20521;-78
2022/12/04 08:20:51;;;;;;;18.17;11.13;;;;;;;3.20;73.22;96263.16;5073557;28;20048;-77
2022/12/04 08:23:19;;;;;;;16.55;10.48;;;;;;;3.21;73.57;96265.56;5073752;28;20053;-77
2022/12/04 08:25:46;;;;;;;18.38;10.45;;;;;;;3.19;73.01;96257.19;5057406;28;20066;-76
2022/12/04 08:28:14;;;;;;;15.98;9.95;;;;;;;3.19;73.53;96254.59;5073381;28;20067;-76
2022/12/04 08:30:43;;;;;;;16.13;9.98;;;;;;;3.18;73.47;96265.84;5072900;28;20048;-77
2022/12/04 08:33:10;;;;;;;16.30;9.70;;;;;;;3.17;73.23;96268.56;5073659;28;20064;-77
2022/12/04 08:35:38;;;;;;;13.98;8.65;;;;;;;3.17;73.25;96278.88;5072982;28;20044;-76
2022/12/04 08:38:06;;;;;;;16.08;8.50;;;;;;;3.16;73.37;96280.66;5073008;28;20053;-77
2022/12/04 08:40:33;;;;;;;14.15;8.63;;;;;;;3.19;73.21;96280.38;5073232;28;20117;-76
2022/12/04 08:43:01;;;;;;;16.50;9.30;;;;;;;3.21;73.34;96275.88;5073372;28;20056;-77
2022/12/04 08:45:28;;;;;;;16.50;9.07;;;;;;;3.22;73.22;96272.34;5083147;28;20040;-77
2022/12/04 08:47:57;;;;;;;16.60;10.02;;;;;;;3.23;73.50;96279.13;5079512;28;20122;-78
2022/12/04 08:50:26;;;;;;;17.10;11.00;;;;;;;3.24;73.15;96275.59;5079405;28;20049;-76
2022/12/04 08:52:53;;;;;;;16.63;10.38;;;;;;;3.27;73.64;96270.16;5073199;28;20403;-77
2022/12/04 08:55:21;;;;;;;16.05;10.05;;;;;;;3.28;73.67;96279.50;5072945;28;20052;-77
2022/12/04 08:57:50;;;;;;;22.95;14.32;;;;;;;3.29;73.43;96278.53;5072836;28;20514;-77
2022/12/04 09:00:18;;;;;;;22.45;14.10;;;;;;;3.33;73.58;96280.84;5072884;28;20049;-77
2022/12/04 09:02:48;;;;;;;19.25;11.88;;;;;;;3.34;73.42;96272.16;5072952;28;20052;-77
2022/12/04 09:05:17;;;;;;;19.00;10.65;;;;;;;3.31;73.63;96275.84;5072756;28;20048;-78
2022/12/04 09:07:45;;;;;;;15.23;9.70;;;;;;;3.32;73.62;96271.47;5072726;28;20044;-78
2022/12/04 09:10:13;;;;;;;17.75;10.63;;;;;;;3.35;73.83;96268.63;5073234;28;20049;-78
2022/12/04 09:12:40;;;;;;;16.77;9.77;;;;;;;3.35;74.13;96266.06;5072886;28;20101;-78
2022/12/04 09:15:09;;;;;;;15.00;9.43;;;;;;;3.35;74.39;96271.22;5073054;28;20051;-78
2022/12/04 09:17:36;;;;;;;14.85;10.00;;;;;;;3.38;74.07;96281.22;5072898;28;20060;-78
2022/12/04 09:20:05;;;;;;;15.60;9.65;;;;;;;3.40;74.22;96279.31;5072389;28;20414;-79
2022/12/04 09:22:37;;;;;;;14.73;9.52;;;;;;;3.41;73.80;96276.59;5072769;28;20071;-79
2022/12/04 09:25:25;;;;;;;14.93;8.98;;;;;;;3.41;74.01;96271.44;5072784;28;20048;-78
2022/12/04 09:27:52;;;;;;;16.42;10.10;;;;;;;3.41;73.73;96266.28;5071750;28;20514;-77
2022/12/04 09:30:20;;;;;;;26.42;15.50;;;;;;;3.43;74.08;96258.38;5072387;28;20056;-78
2022/12/04 09:32:47;;;;;;;28.63;17.73;;;;;;;3.45;74.46;96257.28;5072802;28;20055;-77
2022/12/04 09:35:15;;;;;;;21.33;13.13;;;;;;;3.49;75.00;96252.66;5072817;28;20044;-79
2022/12/04 09:37:44;;;;;;;20.52;11.05;;;;;;;3.53;74.25;96258.34;5072609;28;20048;-79
2022/12/04 09:40:23;;;;;;;15.70;9.70;;;;;;;3.54;73.69;96245.28;5073073;28;20048;-80
2022/12/04 09:42:58;;;;;;;13.52;8.77;;;;;;;3.56;73.98;96240.78;5072964;28;20053;-79
2022/12/04 09:45:26;;;;;;;13.85;9.10;;;;;;;3.56;73.83;96239.97;5072793;28;20052;-77
2022/12/04 09:47:57;;;;;;;14.07;8.45;;;;;;;3.54;73.78;96234.97;5071462;28;20075;-78
2022/12/04 09:50:32;;;;;;;15.60;8.68;;;;;;;3.54;73.80;96242.69;5072146;28;20425;-77
2022/12/04 09:53:03;;;;;;;14.65;9.68;;;;;;;3.57;74.25;96247.56;5063855;28;20056;-78
2022/12/04 09:55:33;;;;;;;15.40;10.20;;;;;;;3.58;73.86;96261.28;5071586;28;20049;-77
2022/12/04 09:58:04;;;;;;;16.90;9.35;;;;;;;3.60;74.14;96277.41;5068359;28;20056;-77
2022/12/04 10:00:36;;;;;;;15.57;9.40;;;;;;;3.60;73.72;96288.53;5073699;28;20049;-77
2022/12/04 10:03:07;;;;;;;14.55;9.68;;;;;;;3.59;73.58;96268.06;5056078;28;20062;-78
2022/12/04 10:05:58;;;;;;;17.50;10.63;;;;;;;3.59;74.17;96247.44;5070236;28;20055;-76
2022/12/04 10:08:30;;;;;;;17.65;10.82;;;;;;;3.55;73.54;96230.63;5064886;28;20049;-77
2022/12/04 10:11:09;;;;;;;15.88;10.35;;;;;;;3.54;73.97;96227.22;5072133;28;20120;-77
2022/12/04 10:13:54;;;;;;;15.60;9.65;;;;;;;3.51;73.80;96220.59;5071969;28;20048;-77
2022/12/04 10:16:28;;;;;;;16.30;10.38;;;;;;;3.50;73.89;96215.59;5072420;28;20052;-77
2022/12/04 10:19:05;;;;;;;17.08;10.23;;;;;;;3.47;74.47;96228.78;5071247;28;20052;-77
2022/12/04 10:21:45;;;;;;;14.77;10.07;;;;;;;3.44;74.19;96239.41;5060227;28;20048;-77
2022/12/04 10:24:29;;;;;;;21.15;11.27;;;;;;;3.44;74.92;96240.19;5071641;28;20060;-77
2022/12/04 10:27:01;;;;;;;17.98;10.55;;;;;;;3.44;74.70;96229.88;5072067;28;20053;-77
2022/12/04 10:29:32;;;;;;;15.25;8.70;;;;;;;3.43;74.36;96215.38;5071801;28;20510;-76
2022/12/04 10:32:15;;;;;;;16.40;9.63;;;;;;;3.42;75.07;96206.00;5071812;28;20059;-77
2022/12/04 10:34:44;;;;;;;15.02;9.55;;;;;;;3.43;74.52;96211.97;5074514;28;20052;-77
2022/12/04 10:37:14;;;;;;;14.95;8.98;;;;;;;3.44;74.92;96213.59;5075481;28;20056;-77
2022/12/04 10:39:50;;;;;;;12.77;8.82;;;;;;;3.44;75.24;96200.72;5074725;28;20053;-77
2022/12/04 10:42:25;;;;;;;15.50;9.65;;;;;;;3.44;74.81;96198.13;5077874;28;20051;-77
2022/12/04 10:44:53;;;;;;;13.70;8.88;;;;;;;3.45;74.92;96203.13;5082472;28;20049;-77
2022/12/04 10:47:22;;;;;;;16.13;9.77;;;;;;;3.46;75.00;96196.22;5076300;28;20493;-77
2022/12/04 10:49:57;;;;;;;14.82;8.95;;;;;;;3.43;75.31;96192.19;5075216;28;20059;-77
2022/12/04 10:52:25;;;;;;;15.23;10.63;;;;;;;3.40;75.05;96192.44;5075246;28;20048;-77
2022/12/04 10:54:57;;;;;;;18.63;11.00;;;;;;;3.39;75.31;96187.44;5074952;28;20421;-78
2022/12/04 10:57:35;;;;;;;14.63;9.07;;;;;;;3.38;75.29;96188.41;5075027;28;20059;-76
2022/12/04 11:00:06;;;;;;;14.77;8.13;;;;;;;3.38;74.81;96188.41;5075224;28;20052;-76
2022/12/04 11:02:34;;;;;;;16.75;10.63;;;;;;;3.36;74.62;96180.81;5075114;28;20048;-77
2022/12/04 11:05:07;;;;;;;14.32;9.50;;;;;;;3.34;74.63;96182.72;5074785;28;20164;-76
2022/12/04 11:07:36;;;;;;;13.55;8.85;;;;;;;3.33;75.01;96185.47;5074572;28;20056;-76
2022/12/04 11:10:18;;;;;;;12.88;8.60;;;;;;;3.32;75.08;96194.16;5073816;28;20060;-76
2022/12/04 11:12:55;;;;;;;13.13;8.98;;;;;;;3.37;76.66;96186.78;5075206;28;20090;-77
2022/12/04 11:15:23;;;;;;;11.73;7.45;;;;;;;3.40;75.50;96189.88;5075040;28;20052;-76
2022/12/04 11:17:52;;;;;;;11.88;8.40;;;;;;;3.41;75.20;96198.41;5074610;28;20048;-75
2022/12/04 11:20:22;;;;;;;12.10;8.00;;;;;;;3.39;75.03;96200.31;5074189;28;20048;-75
2022/12/04 11:22:52;;;;;;;16.65;9.68;;;;;;;3.37;75.92;96202.25;5073908;28;20065;-76
2022/12/04 11:25:22;;;;;;;14.13;8.90;;;;;;;3.37;76.49;96194.50;5074873;28;20055;-76
2022/12/04 11:27:53;;;;;;;15.05;9.25;;;;;;;3.39;76.55;96198.59;5074139;28;20052;-76
2022/12/04 11:30:25;;;;;;;12.50;7.90;;;;;;;3.40;76.04;96194.22;5074335;28;20048;-77
2022/12/04 11:32:54;;;;;;;20.20;11.47;;;;;;;3.42;76.03;96189.75;5070377;28;20048;-76
2022/12/04 11:35:24;;;;;;;16.70;10.23;;;;;;;3.43;75.75;96186.19;5074275;28;20635;-76
2022/12/04 11:37:55;;;;;;;16.63;10.90;;;;;;;3.43;75.94;96181.03;5073927;28;20053;-78
2022/12/04 11:40:25;;;;;;;17.77;8.45;;;;;;;3.40;75.73;96176.19;5073140;28;20059;-75
2022/12/04 11:43:02;;;;;;;15.05;8.13;;;;;;;3.37;76.07;96176.47;5063071;28;20430;-76
2022/12/04 11:45:30;;;;;;;13.80;8.07;;;;;;;3.35;75.79;96183.56;5073575;28;20808;-79
2022/12/04 11:48:00;;;;;;;14.25;9.20;;;;;;;3.33;75.74;96198.34;5073902;28;20127;-77
2022/12/04 11:50:39;;;;;;;16.63;8.23;;;;;;;3.32;76.17;96192.38;5072822;28;20513;-76
2022/12/04 11:53:15;;;;;;;14.98;9.07;;;;;;;3.36;76.08;96190.31;5071918;28;20056;-77
2022/12/04 11:55:53;;;;;;;12.40;8.27;;;;;;;3.39;76.13;96179.69;5072213;28;20044;-78